Imperial Valley (TL50001) Station Data

Red Flag Warning: No
Fire Weather Zone: 262
SDGE Region: Mountain Empire
Lat/Lon: 32.745/-116.038

Observations

Time Wind Speed/Gust Temp(F) RH Fuel Moist Fuel Temp(F) Dewpt(F) Tmax(F) Tmin(F) Accum Precip 10-min Precip SL Press(mb)
2/27 11:40pm 177 3 G 6 51° 84% - - 46° 61.9° 24.7° - - 1013.0
2/27 11:20pm 178 3 G 5 56° 76% - - 48° 61.9° 24.7° - - 1012.0
2/27 11:10pm 119 3 G 8 57° 69% - - 47° 61.9° 24.7° - - 1012.0
2/27 11:00pm 129 5 G 7 58° 62% - - 45° 61.9° 24.7° - - 1012.0
2/27 10:50pm 141 3 G 9 60° 57% - - 44° 61.9° 24.7° - - 1012.0
2/27 10:40pm 197 7 G 15 61° 49% - - 42° 61.9° 24.7° - - 1012.0
2/27 10:30pm 228 6 G 12 61° 50% - - 43° 61.7° 24.7° - - 1012.0
2/27 10:20pm 237 8 G 14 61° 49% - - 42° 61.7° 24.7° - - 1012.0
2/27 10:10pm 241 9 G 14 61° 51% - - 43° 61.6° 24.7° - - 1012.0
2/27 10:00pm 218 9 G 15 61° 52% - - 43° 61.6° 24.7° - - 1012.0
2/27 9:50pm 222 13 G 26 61° 52% - - 43° 61.6° 24.7° - - 1012.0
2/27 9:40pm 216 18 G 33 61° 52% - - 43° 61.6° 24.7° - - 1012.0
2/27 9:30pm 219 20 G 39 61° 52% - - 43° 61.6° 24.7° - - 1012.0
2/27 9:20pm 231 13 G 27 61° 51% - - 43° 61.6° 24.7° - - 1012.0
2/27 9:10pm 250 8 G 20 61° 50% - - 42° 61.6° 24.7° - - 1012.0
2/27 9:00pm 240 13 G 23 61° 51% - - 43° 61.6° 24.7° - - 1012.0
2/27 8:50pm 233 19 G 31 61° 52% - - 43° 61.6° 24.7° - - 1012.0
2/27 8:40pm 231 18 G 33 60° 52% - - 43° 61.6° 24.7° - - 1012.0
2/27 8:30pm 247 14 G 25 60° 52% - - 43° 61.6° 24.7° - - 1011.0
2/27 8:20pm 233 20 G 33 61° 50% - - 42° 61.6° 24.7° - - 1011.0
2/27 8:10pm 230 20 G 33 60° 51% - - 42° 61.6° 24.7° - - 1011.0
2/27 8:00pm 226 20 G 31 60° 52% - - 42° 61.6° 24.7° - - 1011.0
2/27 7:50pm 218 13 G 22 60° 52% - - 42° 61.6° 24.7° - - 1012.0
2/27 7:40pm 245 14 G 28 60° 52% - - 42° 61.6° 24.7° - - 1012.0
2/27 7:30pm 266 12 G 31 60° 51% - - 42° 61.6° 24.7° - - 1012.0
2/27 7:20pm 255 7 G 13 60° 50% - - 41° 61.6° 24.7° - - 1012.0
2/27 7:10pm 238 12 G 24 60° 47% - - 40° 61.6° 24.7° - - 1012.0
2/27 7:00pm 235 12 G 26 60° 47% - - 40° 61.6° 24.7° - - 1012.0
2/27 6:50pm 230 13 G 20 59° 50% - - 41° 61.6° 24.7° - - 1012.0
2/27 6:40pm 217 17 G 27 58° 54% - - 42° 61.6° 24.7° - - 1012.0
2/27 6:30pm 218 20 G 29 59° 55% - - 42° 61.6° 24.7° - - 1012.0
2/27 6:20pm 218 22 G 33 58° 55% - - 42° 61.6° 24.7° - - 1011.0
2/27 6:10pm 222 24 G 34 58° 55% - - 42° 61.6° 24.7° - - 1011.0
2/27 6:00pm 231 22 G 35 59° 54% - - 42° 61.6° 24.7° - - 1011.0
2/27 5:50pm 234 15 G 24 58° 54% - - 41° 61.6° 24.7° - - 1012.0
2/27 5:40pm 234 8 G 23 57° 56% - - 41° 61.6° 24.7° - - 1012.0
2/27 5:30pm 211 7 G 18 55° 57% - - 41° 61.6° 24.7° - - 1013.0
2/27 5:20pm 33 6 G 13 55° 60% - - 41° 61.6° 24.7° - - 1013.0
2/27 5:10pm 215 4 G 12 54° 59% - - 40° 61.6° 24.7° - - 1013.0
2/27 5:00pm 224 8 G 18 53° 60% - - 40° 61.6° 24.7° - - 1013.0
2/27 4:50pm 223 9 G 14 53° 61% - - 39° 61.6° 24.7° - - 1013.0
2/27 4:40pm 217 10 G 16 52° 61% - - 39° 61.6° 24.7° - - 1013.0
2/27 4:30pm 201 10 G 18 51° 62% - - 38° 61.6° 24.7° - - 1013.0
2/27 4:20pm 194 9 G 13 51° 62% - - 38° 61.6° 24.7° - - 1014.0
2/27 4:10pm 189 9 G 13 50° 61% - - 37° 61.6° 24.7° - - 1014.0
2/27 4:00pm 160 5 G 11 49° 61% - - 36° 61.6° 24.7° - - 1014.0
2/27 3:50pm 97 3 G 4 48° 61% - - 35° 61.6° 24.7° - - 1014.0
2/27 3:40pm 157 2 G 5 46° 61% - - 34° 61.6° 24.7° - - 1014.0
2/27 3:30pm 163 1 G 5 44° 62% - - 32° 61.6° 24.7° - - 1014.0
2/27 3:20pm 14 2 G 6 41° 62% - - 29° 61.6° 24.7° - - 1014.0
2/27 3:10pm 142 3 G 8 38° 63% - - 27° 61.6° 24.7° - - 1014.0
2/27 3:00pm 2 7 G 14 34° 63% - - 22° 61.6° 24.7° - - 1014.0
2/27 2:50pm 302 3 G 6 29° 67% - - 20° 61.6° 24.7° - - 1015.0
2/27 2:40pm 223 3 G 10 28° 77% - - 22° 61.6° 24.7° - - 1015.0
2/27 2:30pm 66 9 G 15 29° 78% - - 23° 61.6° 24.7° - - 1014.0
2/27 2:20pm 95 8 G 16 28° 72% - - 20° 61.6° 24.7° - - 1015.0
2/27 2:10pm 166 8 G 16 25° 75% - - 19° 61.6° 24.7° - - 1015.0
2/27 2:00pm 125 8 G 11 26° 78% - - 20° 61.6° 25° - - 1015.0
2/27 1:50pm 127 7 G 9 27° 77% - - 21° 61.6° 26.6° - - 1015.0
2/27 1:40pm 134 9 G 13 27° 78% - - 21° 61.6° 27° - - 1015.0
2/27 1:30pm 129 8 G 11 30° 80% - - 25° 61.6° 28.2° - - 1015.0
2/27 1:20pm 133 7 G 11 34° 79% - - 28° 61.6° 32.5° - - 1015.0
2/27 1:10pm 134 5 G 7 37° 78% - - 30° 61.6° 35.3° - - 1015.0
2/27 1:00pm 80 5 G 9 39° 77% - - 32° 61.6° 37.3° - - 1015.0
2/27 12:40pm 109 3 G 5 41° 77% - - 34° 61.6° 40° - - 1015.0
2/27 12:30pm 140 4 G 8 42° 78% - - 36° 61.6° 41.6° - - 1015.0
2/27 12:20pm 138 6 G 10 44° 78% - - 38° 61.6° 43.4° - - 1015.0
2/27 12:10pm 130 5 G 7 46° 77% - - 39° 61.6° 45.2° - - 1016.0
2/27 12:00pm 147 5 G 8 47° 77% - - 41° 61.6° 46.6° - - 1016.0
2/27 11:50am 129 8 G 11 49° 77% - - 42° 61.6° 48.2° - - 1015.0
2/27 11:40am 122 9 G 13 51° 77% - - 43° 61.6° 49.8° - - 1015.0
2/27 11:30am 130 10 G 13 52° 74% - - 44° 61.6° 51.1° - - 1015.0
2/27 11:20am 148 8 G 11 53° 72% - - 44° 61.6° 52° - - 1015.0
2/27 11:10am 136 9 G 13 54° 69% - - 44° 61.6° 52° - - 1015.0
2/27 11:00am 166 9 G 14 57° 63% - - 44° 61.6° 52° - - 1015.0
2/27 10:50am 12 8 G 19 59° 62% - - 45° 61.2° 52° - - 1015.0
2/27 10:40am 47 8 G 16 57° 65% - - 45° 61.2° 52° - - 1015.0
2/27 10:30am 63 8 G 13 58° 63% - - 46° 61.2° 52° - - 1015.0
2/27 10:20am 18 6 G 13 60° 61% - - 47° 61.2° 52° - - 1015.0
2/27 10:10am 253 8 G 25 61° 60% - - 47° 61.2° 52° - - 1014.0
2/27 10:00am 188 19 G 29 60° 63% - - 47° 60.3° 52° - - 1013.0
2/27 9:50am 198 17 G 26 60° 63% - - 47° 60.3° 52° - - 1014.0
2/27 9:40am 190 12 G 23 59° 65% - - 47° 60.3° 52° - - 1015.0
2/27 9:30am 167 6 G 9 59° 65% - - 47° 60.3° 52° - - 1015.0
2/27 9:20am 200 5 G 9 59° 66% - - 48° 60.3° 52° - - 1015.0
2/27 9:10am 215 7 G 12 59° 67% - - 48° 60.3° 52° - - 1015.0
2/27 9:00am 187 5 G 8 57° 69% - - 47° 60.3° 52° - - 1015.0
2/27 8:50am 161 2 G 5 56° 62% - - 43° 60.3° 52° - - 1015.0
2/27 8:40am 193 1 G 2 55° 59% - - 41° 60.3° 52° - - 1015.0
2/27 8:30am 65 2 G 5 55° 59% - - 41° 60.3° 52° - - 1015.0
2/27 8:20am 19 5 G 7 57° 58% - - 42° 60.3° 52° - - 1015.0
2/27 8:10am 224 5 G 8 58° 61% - - 44° 60.1° 52° - - 1014.0
2/27 8:00am 176 5 G 9 55° 57% - - 40° 60.1° 52° - - 1014.0
2/27 7:50am 163 7 G 9 54° 57% - - 39° 60.1° 52° - - 1014.0
2/27 7:40am 153 6 G 10 53° 58% - - 39° 60.1° 52° - - 1015.0
2/27 7:30am 141 7 G 11 53° 58% - - 39° 60.1° 52° - - 1014.0
2/27 7:20am 147 8 G 12 53° 58% - - 39° 60.1° 52° - - 1014.0
2/27 7:10am 154 10 G 15 53° 59% - - 39° 60.1° 52° - - 1014.0
2/27 7:00am 159 10 G 15 53° 61% - - 40° 60.1° 52° - - 1014.0
2/27 6:50am 151 7 G 13 53° 60% - - 40° 60.1° 52° - - 1014.0
2/27 6:40am 131 7 G 10 53° 58% - - 38° 60.1° 52° - - 1014.0
2/27 6:30am 125 3 G 9 53° 58% - - 38° 60.1° 52° - - 1014.0
2/27 6:20am 109 2 G 5 52° 59% - - 38° 60.1° 52° - - 1014.0
2/27 6:10am 65 4 G 6 52° 59% - - 39° 60.1° 52° - - 1014.0
2/27 6:00am 74 4 G 8 53° 59% - - 39° 60.1° 52.3° - - 1014.0
2/27 5:50am 132 7 G 10 56° 56% - - 41° 60.1° 52.6° - - 1014.0
2/27 5:40am 232 6 G 14 59° 61% - - 46° 60° 55.4° - - 1014.0
2/27 5:30am 219 6 G 14 59° 61% - - 46° 59.6° 55.4° - - 1014.0
2/27 5:20am 181 13 G 20 58° 60% - - 44° 59.6° 55.4° - - 1014.0
2/27 5:10am 190 10 G 16 59° 61% - - 46° 59.6° 55.4° - - 1014.0
2/27 5:00am 190 9 G 16 59° 62% - - 45° 59.4° 55.4° - - 1014.0
2/27 4:50am 174 7 G 10 57° 59% - - 43° 59.4° 55.4° - - 1014.0
2/27 4:40am 173 6 G 10 57° 58% - - 42° 59.4° 55.4° - - 1014.0
2/27 4:30am 151 6 G 11 56° 58% - - 41° 59.4° 55.4° - - 1014.0
2/27 4:20am 158 4 G 9 56° 58% - - 41° 59.4° 55.5° - - 1014.0
2/27 4:10am 203 8 G 16 59° 59% - - 45° 59.4° 56.5° - - 1014.0
2/27 4:00am 229 9 G 13 59° 61% - - 46° 59.4° 57° - - 1014.0
2/27 3:50am 217 9 G 13 59° 62% - - 46° 59.4° 57° - - 1014.0
2/27 3:40am 210 6 G 10 58° 63% - - 46° 59.4° 57° - - 1014.0
2/27 3:30am 203 8 G 15 58° 63% - - 46° 59.4° 57° - - 1014.0
2/27 3:20am 207 8 G 11 59° 62% - - 46° 59.4° 57° - - 1014.0
2/27 3:10am 215 7 G 14 59° 60% - - 45° 59.4° 57° - - 1014.0
2/27 3:00am 223 9 G 13 59° 60% - - 45° 59.4° 57° - - 1014.0
2/27 2:50am 221 10 G 17 59° 60% - - 45° 59.2° 57° - - 1014.0
2/27 2:40am 230 8 G 12 59° 60% - - 45° 59.1° 57° - - 1014.0
2/27 2:30am 228 9 G 16 59° 60% - - 45° 59° 57° - - 1014.0
2/27 2:20am 238 8 G 16 59° 60% - - 45° 59° 57° - - 1014.0
2/27 2:10am 260 5 G 11 58° 59% - - 44° 58.8° 57° - - 1015.0
2/27 2:00am 265 3 G 5 58° 59% - - 44° 58.6° 57° - - 1015.0
2/27 1:50am 253 5 G 12 58° 59% - - 44° 58.6° 57° - - 1015.0
2/27 1:40am 272 4 G 7 58° 59% - - 44° 58.4° 57° - - 1015.0
2/27 1:30am 252 5 G 9 58° 60% - - 44° 58.4° 57° - - 1015.0
2/27 1:20am 263 5 G 9 58° 59% - - 44° 58.4° 57° - - 1015.0
2/27 1:10am 247 8 G 15 58° 59% - - 44° 58.3° 57° - - 1015.0
2/27 1:00am 254 7 G 12 58° 59% - - 44° 58.3° 57° - - 1015.0
2/27 12:50am 247 7 G 13 58° 59% - - 44° 58.2° 57° - - 1015.0
2/27 12:40am 251 6 G 12 58° 58% - - 44° 58.2° 57° - - 1015.0
2/27 12:30am 241 7 G 14 58° 59% - - 43° 58.2° 57° - - 1015.0
2/27 12:20am 258 6 G 10 58° 59% - - 43° 58° 57° - - 1015.0
2/27 12:10am 260 4 G 8 57° 59% - - 43° 57.5° 57° - - 1015.0
2/27 12:00am 277 7 G 12 57° 58% - - 43° 62.8° 52.8° - - 1015.0
2/26 11:50pm 273 7 G 13 57° 58% - - 43° 62.8° 52.8° - - 1015.0
2/26 11:40pm 267 7 G 11 57° 58% - - 42° 62.8° 52.8° - - 1015.0
2/26 11:30pm 272 9 G 16 57° 58% - - 42° 62.8° 52.8° - - 1015.0
2/26 11:20pm 278 10 G 17 57° 58% - - 42° 62.8° 52.8° - - 1015.0
2/26 11:10pm 274 9 G 17 56° 57% - - 41° 62.8° 52.8° - - 1015.0
2/26 11:00pm 275 11 G 17 56° 57% - - 41° 62.8° 52.8° - - 1015.0
2/26 10:50pm 277 11 G 17 56° 58% - - 41° 62.8° 52.8° - - 1015.0
2/26 10:40pm 282 12 G 17 56° 57% - - 41° 62.8° 52.8° - - 1015.0
2/26 10:30pm 278 10 G 16 56° 56% - - 41° 62.8° 52.8° - - 1016.0
2/26 10:20pm 293 11 G 20 56° 55% - - 40° 62.8° 52.8° - - 1016.0
2/26 10:10pm 294 10 G 14 56° 53% - - 39° 62.8° 52.8° - - 1016.0
2/26 10:00pm 284 10 G 17 56° 51% - - 38° 62.8° 52.8° - - 1016.0
2/26 9:50pm 293 11 G 21 56° 50% - - 37° 62.8° 52.8° - - 1016.0
2/26 9:40pm 287 11 G 18 56° 50% - - 37° 62.8° 52.8° - - 1016.0
2/26 9:30pm 292 11 G 20 56° 49% - - 37° 62.8° 52.8° - - 1016.0
2/26 9:20pm 291 13 G 23 56° 48% - - 37° 62.8° 52.8° - - 1016.0
2/26 9:10pm 288 14 G 23 56° 47% - - 36° 62.8° 52.8° - - 1016.0
2/26 9:00pm 279 20 G 28 56° 47% - - 36° 62.8° 52.8° - - 1016.0
2/26 8:50pm 281 21 G 32 56° 47% - - 36° 62.8° 52.8° - - 1016.0
2/26 8:40pm 288 19 G 27 57° 46% - - 36° 62.8° 52.8° - - 1016.0
2/26 8:30pm 291 14 G 27 57° 46% - - 36° 62.8° 52.8° - - 1016.0
2/26 8:20pm 284 14 G 22 57° 46% - - 36° 62.8° 52.8° - - 1016.0
2/26 8:10pm 284 14 G 21 57° 45% - - 36° 62.8° 52.8° - - 1016.0
2/26 8:00pm 282 12 G 24 57° 46% - - 37° 62.8° 52.8° - - 1015.0
2/26 7:50pm 283 14 G 25 57° 47% - - 37° 62.8° 52.8° - - 1015.0
2/26 7:40pm 280 15 G 26 57° 47% - - 37° 62.8° 52.8° - - 1015.0
2/26 7:30pm 287 15 G 22 57° 46% - - 36° 62.8° 52.8° - - 1015.0
2/26 7:20pm 284 19 G 29 57° 46% - - 36° 62.8° 52.8° - - 1015.0
2/26 7:10pm 289 17 G 23 57° 45% - - 36° 62.8° 52.8° - - 1015.0
2/26 7:00pm 285 18 G 27 57° 45% - - 36° 62.8° 52.8° - - 1015.0
2/26 6:50pm 287 18 G 26 57° 45% - - 36° 62.8° 52.8° - - 1015.0
2/26 6:40pm 285 18 G 26 57° 45% - - 36° 62.8° 52.8° - - 1015.0
2/26 6:30pm 282 15 G 24 57° 45% - - 36° 62.8° 52.8° - - 1015.0
2/26 6:20pm 283 14 G 22 57° 44% - - 36° 62.8° 52.8° - - 1015.0
2/26 6:10pm 285 13 G 24 57° 44% - - 36° 62.8° 52.8° - - 1015.0
2/26 6:00pm 282 14 G 22 58° 45% - - 36° 62.8° 52.8° - - 1015.0
2/26 5:50pm 284 15 G 27 58° 44% - - 36° 62.8° 52.8° - - 1016.0
2/26 5:40pm 282 14 G 27 58° 44% - - 36° 62.8° 52.8° - - 1016.0
2/26 5:30pm 287 13 G 23 58° 44% - - 36° 62.8° 52.8° - - 1016.0
2/26 5:20pm 285 14 G 23 58° 43% - - 36° 62.8° 52.8° - - 1015.0
2/26 5:10pm 289 16 G 26 59° 40% - - 34° 62.8° 52.8° - - 1015.0
2/26 5:00pm 286 17 G 25 59° 39% - - 35° 62.8° 52.8° - - 1015.0
2/26 4:50pm 280 11 G 20 60° 39% - - 35° 62.8° 52.8° - - 1015.0